sensor_id;sensor_type;location;lat;lon;timestamp;P1;durP1;ratioP1;P2;durP2;ratioP2
71941;SDS011;59997;53.300;-6.260;2022-12-07T00:01:29;24.40;;;10.18;;
71941;SDS011;59997;53.300;-6.260;2022-12-07T00:03:57;23.07;;;9.67;;
71941;SDS011;59997;53.300;-6.260;2022-12-07T00:06:32;27.05;;;10.80;;
71941;SDS011;59997;53.300;-6.260;2022-12-07T00:09:04;20.85;;;9.93;;
71941;SDS011;59997;53.300;-6.260;2022-12-07T00:11:30;24.92;;;10.38;;
71941;SDS011;59997;53.300;-6.260;2022-12-07T00:13:57;23.50;;;9.13;;
71941;SDS011;59997;53.300;-6.260;2022-12-07T00:16:25;26.40;;;10.55;;
71941;SDS011;59997;53.300;-6.260;2022-12-07T00:18:53;23.40;;;9.65;;
71941;SDS011;59997;53.300;-6.260;2022-12-07T00:21:20;26.90;;;9.67;;
71941;SDS011;59997;53.300;-6.260;2022-12-07T00:23:50;26.52;;;9.90;;
71941;SDS011;59997;53.300;-6.260;2022-12-07T00:26:19;20.23;;;8.32;;
71941;SDS011;59997;53.300;-6.260;2022-12-07T00:28:50;26.77;;;9.48;;
71941;SDS011;59997;53.300;-6.260;2022-12-07T00:31:18;24.47;;;9.83;;
71941;SDS011;59997;53.300;-6.260;2022-12-07T00:33:46;23.13;;;9.35;;
71941;SDS011;59997;53.300;-6.260;2022-12-07T00:36:16;21.05;;;8.85;;
71941;SDS011;59997;53.300;-6.260;2022-12-07T00:38:43;22.67;;;9.20;;
71941;SDS011;59997;53.300;-6.260;2022-12-07T00:43:50;18.92;;;8.02;;
71941;SDS011;59997;53.300;-6.260;2022-12-07T00:46:18;26.30;;;9.48;;
71941;SDS011;59997;53.300;-6.260;2022-12-07T00:48:44;22.40;;;8.93;;
71941;SDS011;59997;53.300;-6.260;2022-12-07T00:51:14;19.90;;;9.38;;
71941;SDS011;59997;53.300;-6.260;2022-12-07T00:53:42;21.52;;;8.75;;
71941;SDS011;59997;53.300;-6.260;2022-12-07T00:56:09;19.45;;;8.40;;
71941;SDS011;59997;53.300;-6.260;2022-12-07T00:58:43;20.63;;;7.75;;
71941;SDS011;59997;53.300;-6.260;2022-12-07T01:01:09;19.13;;;7.85;;
71941;SDS011;59997;53.300;-6.260;2022-12-07T01:03:37;17.40;;;7.90;;
71941;SDS011;59997;53.300;-6.260;2022-12-07T01:06:03;21.67;;;8.35;;
71941;SDS011;59997;53.300;-6.260;2022-12-07T01:08:29;20.40;;;7.43;;
71941;SDS011;59997;53.300;-6.260;2022-12-07T01:11:03;22.65;;;8.63;;
71941;SDS011;59997;53.300;-6.260;2022-12-07T01:13:30;20.27;;;8.20;;
71941;SDS011;59997;53.300;-6.260;2022-12-07T01:15:58;17.75;;;7.03;;
71941;SDS011;59997;53.300;-6.260;2022-12-07T01:18:29;17.13;;;7.13;;
71941;SDS011;59997;53.300;-6.260;2022-12-07T01:23:37;16.17;;;7.00;;
71941;SDS011;59997;53.300;-6.260;2022-12-07T01:26:06;15.43;;;6.82;;
71941;SDS011;59997;53.300;-6.260;2022-12-07T01:28:36;19.15;;;6.40;;
71941;SDS011;59997;53.300;-6.260;2022-12-07T01:31:07;17.17;;;7.03;;
71941;SDS011;59997;53.300;-6.260;2022-12-07T01:33:36;18.52;;;6.90;;
71941;SDS011;59997;53.300;-6.260;2022-12-07T01:36:15;15.02;;;6.03;;
71941;SDS011;59997;53.300;-6.260;2022-12-07T01:38:58;18.13;;;6.15;;
71941;SDS011;59997;53.300;-6.260;2022-12-07T01:41:37;18.05;;;5.35;;
71941;SDS011;59997;53.300;-6.260;2022-12-07T01:44:12;16.10;;;6.00;;
71941;SDS011;59997;53.300;-6.260;2022-12-07T01:46:45;19.33;;;6.00;;
71941;SDS011;59997;53.300;-6.260;2022-12-07T01:49:42;16.13;;;5.82;;
71941;SDS011;59997;53.300;-6.260;2022-12-07T01:54:59;20.42;;;6.25;;
71941;SDS011;59997;53.300;-6.260;2022-12-07T01:57:30;16.20;;;5.43;;
71941;SDS011;59997;53.300;-6.260;2022-12-07T01:59:58;13.25;;;5.32;;
71941;SDS011;59997;53.300;-6.260;2022-12-07T02:02:30;17.15;;;5.55;;
71941;SDS011;59997;53.300;-6.260;2022-12-07T02:05:00;14.85;;;4.95;;
71941;SDS011;59997;53.300;-6.260;2022-12-07T02:07:29;14.40;;;4.88;;
71941;SDS011;59997;53.300;-6.260;2022-12-07T02:10:17;14.65;;;4.80;;
71941;SDS011;59997;53.300;-6.260;2022-12-07T02:12:46;13.02;;;4.45;;
71941;SDS011;59997;53.300;-6.260;2022-12-07T02:15:16;15.90;;;4.47;;
71941;SDS011;59997;53.300;-6.260;2022-12-07T02:20:33;20.38;;;5.05;;
71941;SDS011;59997;53.300;-6.260;2022-12-07T02:26:34;14.32;;;4.80;;
71941;SDS011;59997;53.300;-6.260;2022-12-07T02:29:32;18.13;;;4.32;;
71941;SDS011;59997;53.300;-6.260;2022-12-07T02:35:22;12.93;;;4.18;;
71941;SDS011;59997;53.300;-6.260;2022-12-07T02:38:16;13.90;;;3.90;;
71941;SDS011;59997;53.300;-6.260;2022-12-07T02:41:05;12.52;;;4.63;;
71941;SDS011;59997;53.300;-6.260;2022-12-07T02:43:47;16.63;;;4.15;;
71941;SDS011;59997;53.300;-6.260;2022-12-07T02:46:25;14.90;;;3.88;;
71941;SDS011;59997;53.300;-6.260;2022-12-07T02:48:56;13.82;;;4.32;;
71941;SDS011;59997;53.300;-6.260;2022-12-07T02:51:25;11.00;;;3.72;;
71941;SDS011;59997;53.300;-6.260;2022-12-07T02:53:51;10.98;;;3.78;;
71941;SDS011;59997;53.300;-6.260;2022-12-07T03:05:31;12.93;;;3.35;;
71941;SDS011;59997;53.300;-6.260;2022-12-07T03:11:13;15.53;;;4.03;;
71941;SDS011;59997;53.300;-6.260;2022-12-07T03:16:21;10.88;;;3.80;;
71941;SDS011;59997;53.300;-6.260;2022-12-07T03:18:53;12.32;;;3.67;;
71941;SDS011;59997;53.300;-6.260;2022-12-07T03:21:26;13.25;;;3.83;;
71941;SDS011;59997;53.300;-6.260;2022-12-07T03:24:00;11.47;;;3.80;;
71941;SDS011;59997;53.300;-6.260;2022-12-07T03:26:37;13.00;;;3.50;;
71941;SDS011;59997;53.300;-6.260;2022-12-07T03:29:08;10.10;;;3.50;;
71941;SDS011;59997;53.300;-6.260;2022-12-07T03:31:40;12.40;;;3.38;;
71941;SDS011;59997;53.300;-6.260;2022-12-07T03:34:11;13.00;;;3.17;;
71941;SDS011;59997;53.300;-6.260;2022-12-07T03:37:04;9.20;;;2.90;;
71941;SDS011;59997;53.300;-6.260;2022-12-07T03:39:39;12.57;;;3.47;;
71941;SDS011;59997;53.300;-6.260;2022-12-07T03:42:10;10.52;;;3.17;;
71941;SDS011;59997;53.300;-6.260;2022-12-07T03:44:37;10.50;;;2.88;;
71941;SDS011;59997;53.300;-6.260;2022-12-07T03:47:12;10.57;;;2.97;;
71941;SDS011;59997;53.300;-6.260;2022-12-07T03:49:58;13.37;;;3.47;;
71941;SDS011;59997;53.300;-6.260;2022-12-07T03:52:39;9.20;;;2.60;;
71941;SDS011;59997;53.300;-6.260;2022-12-07T03:55:32;12.27;;;2.83;;
71941;SDS011;59997;53.300;-6.260;2022-12-07T03:58:02;15.32;;;3.60;;
71941;SDS011;59997;53.300;-6.260;2022-12-07T04:00:33;10.35;;;3.22;;
71941;SDS011;59997;53.300;-6.260;2022-12-07T04:02:59;9.43;;;3.00;;
71941;SDS011;59997;53.300;-6.260;2022-12-07T04:05:24;10.93;;;2.97;;
71941;SDS011;59997;53.300;-6.260;2022-12-07T04:07:50;12.67;;;3.60;;
71941;SDS011;59997;53.300;-6.260;2022-12-07T04:10:17;12.73;;;3.25;;
71941;SDS011;59997;53.300;-6.260;2022-12-07T04:12:43;11.32;;;3.00;;
71941;SDS011;59997;53.300;-6.260;2022-12-07T04:15:09;12.17;;;3.60;;
71941;SDS011;59997;53.300;-6.260;2022-12-07T04:17:40;11.68;;;2.90;;
71941;SDS011;59997;53.300;-6.260;2022-12-07T04:20:07;11.90;;;3.15;;
71941;SDS011;59997;53.300;-6.260;2022-12-07T04:22:34;12.45;;;3.22;;
71941;SDS011;59997;53.300;-6.260;2022-12-07T04:25:00;12.68;;;3.60;;
71941;SDS011;59997;53.300;-6.260;2022-12-07T04:27:26;13.87;;;2.90;;
71941;SDS011;59997;53.300;-6.260;2022-12-07T04:29:52;9.13;;;3.38;;
71941;SDS011;59997;53.300;-6.260;2022-12-07T04:32:19;13.90;;;3.85;;
71941;SDS011;59997;53.300;-6.260;2022-12-07T04:34:45;14.80;;;3.50;;
71941;SDS011;59997;53.300;-6.260;2022-12-07T04:37:10;13.15;;;3.97;;
71941;SDS011;59997;53.300;-6.260;2022-12-07T04:39:36;10.20;;;3.40;;
71941;SDS011;59997;53.300;-6.260;2022-12-07T04:42:03;10.25;;;3.60;;
71941;SDS011;59997;53.300;-6.260;2022-12-07T04:44:30;15.17;;;3.57;;
71941;SDS011;59997;53.300;-6.260;2022-12-07T04:46:56;11.02;;;3.67;;
71941;SDS011;59997;53.300;-6.260;2022-12-07T04:49:25;13.43;;;4.43;;
71941;SDS011;59997;53.300;-6.260;2022-12-07T04:51:52;9.98;;;3.20;;
71941;SDS011;59997;53.300;-6.260;2022-12-07T04:54:21;8.52;;;3.38;;
71941;SDS011;59997;53.300;-6.260;2022-12-07T04:56:48;12.70;;;3.38;;
71941;SDS011;59997;53.300;-6.260;2022-12-07T04:59:14;9.55;;;3.47;;
71941;SDS011;59997;53.300;-6.260;2022-12-07T05:01:42;13.50;;;3.45;;
71941;SDS011;59997;53.300;-6.260;2022-12-07T05:04:09;16.00;;;3.92;;
71941;SDS011;59997;53.300;-6.260;2022-12-07T05:06:38;19.80;;;4.00;;
71941;SDS011;59997;53.300;-6.260;2022-12-07T05:09:06;11.30;;;3.95;;
71941;SDS011;59997;53.300;-6.260;2022-12-07T05:11:31;12.02;;;3.90;;
71941;SDS011;59997;53.300;-6.260;2022-12-07T05:14:17;12.95;;;3.72;;
71941;SDS011;59997;53.300;-6.260;2022-12-07T05:16:47;11.40;;;3.40;;
71941;SDS011;59997;53.300;-6.260;2022-12-07T05:19:14;13.48;;;4.40;;
71941;SDS011;59997;53.300;-6.260;2022-12-07T05:21:41;13.95;;;3.70;;
71941;SDS011;59997;53.300;-6.260;2022-12-07T05:24:07;11.10;;;3.75;;
71941;SDS011;59997;53.300;-6.260;2022-12-07T05:26:34;12.47;;;3.87;;
71941;SDS011;59997;53.300;-6.260;2022-12-07T05:29:01;10.30;;;3.70;;
71941;SDS011;59997;53.300;-6.260;2022-12-07T05:31:27;11.20;;;4.40;;
71941;SDS011;59997;53.300;-6.260;2022-12-07T05:33:55;12.27;;;3.70;;
71941;SDS011;59997;53.300;-6.260;2022-12-07T05:36:20;10.98;;;3.50;;
71941;SDS011;59997;53.300;-6.260;2022-12-07T05:38:49;9.73;;;3.55;;
71941;SDS011;59997;53.300;-6.260;2022-12-07T05:41:18;9.45;;;3.20;;
71941;SDS011;59997;53.300;-6.260;2022-12-07T05:44:03;8.05;;;2.97;;
71941;SDS011;59997;53.300;-6.260;2022-12-07T05:46:30;13.97;;;3.50;;
71941;SDS011;59997;53.300;-6.260;2022-12-07T05:48:56;13.35;;;3.22;;
71941;SDS011;59997;53.300;-6.260;2022-12-07T05:51:21;14.82;;;3.83;;
71941;SDS011;59997;53.300;-6.260;2022-12-07T05:53:48;10.85;;;3.47;;
71941;SDS011;59997;53.300;-6.260;2022-12-07T05:56:14;9.65;;;3.28;;
71941;SDS011;59997;53.300;-6.260;2022-12-07T05:58:40;12.68;;;3.58;;
71941;SDS011;59997;53.300;-6.260;2022-12-07T06:01:24;9.77;;;3.17;;
71941;SDS011;59997;53.300;-6.260;2022-12-07T06:03:49;12.47;;;4.13;;
71941;SDS011;59997;53.300;-6.260;2022-12-07T06:06:15;10.70;;;3.47;;
71941;SDS011;59997;53.300;-6.260;2022-12-07T06:08:41;18.42;;;9.13;;
71941;SDS011;59997;53.300;-6.260;2022-12-07T06:11:07;27.60;;;11.67;;
71941;SDS011;59997;53.300;-6.260;2022-12-07T06:13:50;40.88;;;16.80;;
71941;SDS011;59997;53.300;-6.260;2022-12-07T06:16:18;49.97;;;23.85;;
71941;SDS011;59997;53.300;-6.260;2022-12-07T06:18:43;39.53;;;19.17;;
71941;SDS011;59997;53.300;-6.260;2022-12-07T06:21:09;44.65;;;20.80;;
71941;SDS011;59997;53.300;-6.260;2022-12-07T06:23:35;18.63;;;7.97;;
71941;SDS011;59997;53.300;-6.260;2022-12-07T06:26:01;13.82;;;5.30;;
71941;SDS011;59997;53.300;-6.260;2022-12-07T06:28:27;10.67;;;3.97;;
71941;SDS011;59997;53.300;-6.260;2022-12-07T06:31:02;15.18;;;4.38;;
71941;SDS011;59997;53.300;-6.260;2022-12-07T06:33:29;13.60;;;4.97;;
71941;SDS011;59997;53.300;-6.260;2022-12-07T06:35:54;14.00;;;3.83;;
71941;SDS011;59997;53.300;-6.260;2022-12-07T06:38:21;7.73;;;2.73;;
71941;SDS011;59997;53.300;-6.260;2022-12-07T06:40:48;9.98;;;2.90;;
71941;SDS011;59997;53.300;-6.260;2022-12-07T06:43:14;12.10;;;3.15;;
71941;SDS011;59997;53.300;-6.260;2022-12-07T06:45:41;9.93;;;2.60;;
71941;SDS011;59997;53.300;-6.260;2022-12-07T06:48:11;10.18;;;2.85;;
71941;SDS011;59997;53.300;-6.260;2022-12-07T06:50:37;12.70;;;2.75;;
71941;SDS011;59997;53.300;-6.260;2022-12-07T06:53:02;9.10;;;2.40;;
71941;SDS011;59997;53.300;-6.260;2022-12-07T06:55:33;11.07;;;2.92;;
71941;SDS011;59997;53.300;-6.260;2022-12-07T06:57:58;10.45;;;3.20;;
71941;SDS011;59997;53.300;-6.260;2022-12-07T07:00:25;12.55;;;3.30;;
71941;SDS011;59997;53.300;-6.260;2022-12-07T07:02:50;10.37;;;3.17;;
71941;SDS011;59997;53.300;-6.260;2022-12-07T07:05:17;12.40;;;2.97;;
71941;SDS011;59997;53.300;-6.260;2022-12-07T07:07:43;7.90;;;2.45;;
71941;SDS011;59997;53.300;-6.260;2022-12-07T07:10:10;9.63;;;2.70;;
71941;SDS011;59997;53.300;-6.260;2022-12-07T07:12:35;9.52;;;2.78;;
71941;SDS011;59997;53.300;-6.260;2022-12-07T07:15:01;12.50;;;3.00;;
71941;SDS011;59997;53.300;-6.260;2022-12-07T07:17:26;12.53;;;3.17;;
71941;SDS011;59997;53.300;-6.260;2022-12-07T07:19:53;12.20;;;3.38;;
71941;SDS011;59997;53.300;-6.260;2022-12-07T07:22:19;10.03;;;3.17;;
71941;SDS011;59997;53.300;-6.260;2022-12-07T07:24:45;12.13;;;3.78;;
71941;SDS011;59997;53.300;-6.260;2022-12-07T07:27:11;10.10;;;2.80;;
71941;SDS011;59997;53.300;-6.260;2022-12-07T07:29:38;10.80;;;3.08;;
71941;SDS011;59997;53.300;-6.260;2022-12-07T07:32:04;11.90;;;2.97;;
71941;SDS011;59997;53.300;-6.260;2022-12-07T07:34:30;12.73;;;4.25;;
71941;SDS011;59997;53.300;-6.260;2022-12-07T07:36:56;15.10;;;4.63;;
71941;SDS011;59997;53.300;-6.260;2022-12-07T07:39:21;15.02;;;4.43;;
71941;SDS011;59997;53.300;-6.260;2022-12-07T07:41:47;14.73;;;4.43;;
71941;SDS011;59997;53.300;-6.260;2022-12-07T07:44:14;14.07;;;3.95;;
71941;SDS011;59997;53.300;-6.260;2022-12-07T07:46:40;19.10;;;5.13;;
71941;SDS011;59997;53.300;-6.260;2022-12-07T07:49:09;12.70;;;4.10;;
71941;SDS011;59997;53.300;-6.260;2022-12-07T07:51:36;15.48;;;5.20;;
71941;SDS011;59997;53.300;-6.260;2022-12-07T07:54:04;15.63;;;4.78;;
71941;SDS011;59997;53.300;-6.260;2022-12-07T07:56:31;17.13;;;5.00;;
71941;SDS011;59997;53.300;-6.260;2022-12-07T07:58:57;18.48;;;4.50;;
71941;SDS011;59997;53.300;-6.260;2022-12-07T08:01:23;17.17;;;5.15;;
71941;SDS011;59997;53.300;-6.260;2022-12-07T08:03:49;14.93;;;4.88;;
71941;SDS011;59997;53.300;-6.260;2022-12-07T08:06:15;14.45;;;4.20;;
71941;SDS011;59997;53.300;-6.260;2022-12-07T08:08:40;15.47;;;4.10;;
71941;SDS011;59997;53.300;-6.260;2022-12-07T08:11:08;13.85;;;3.28;;
71941;SDS011;59997;53.300;-6.260;2022-12-07T08:13:36;15.77;;;3.53;;
71941;SDS011;59997;53.300;-6.260;2022-12-07T08:16:03;23.33;;;6.93;;
71941;SDS011;59997;53.300;-6.260;2022-12-07T08:18:34;38.53;;;9.57;;
71941;SDS011;59997;53.300;-6.260;2022-12-07T08:21:02;62.63;;;15.52;;
71941;SDS011;59997;53.300;-6.260;2022-12-07T08:23:31;30.23;;;7.75;;
71941;SDS011;59997;53.300;-6.260;2022-12-07T08:26:01;16.50;;;4.65;;
71941;SDS011;59997;53.300;-6.260;2022-12-07T08:28:30;14.27;;;3.67;;
71941;SDS011;59997;53.300;-6.260;2022-12-07T08:31:02;14.23;;;3.92;;
71941;SDS011;59997;53.300;-6.260;2022-12-07T08:33:50;12.50;;;3.67;;
71941;SDS011;59997;53.300;-6.260;2022-12-07T08:36:16;16.07;;;5.37;;
71941;SDS011;59997;53.300;-6.260;2022-12-07T08:38:43;13.68;;;4.22;;
71941;SDS011;59997;53.300;-6.260;2022-12-07T08:41:09;15.30;;;4.68;;
71941;SDS011;59997;53.300;-6.260;2022-12-07T08:43:37;15.65;;;4.65;;
71941;SDS011;59997;53.300;-6.260;2022-12-07T08:46:38;23.02;;;5.50;;
71941;SDS011;59997;53.300;-6.260;2022-12-07T08:52:15;19.60;;;5.05;;
71941;SDS011;59997;53.300;-6.260;2022-12-07T08:54:41;15.90;;;5.50;;
71941;SDS011;59997;53.300;-6.260;2022-12-07T08:57:08;17.13;;;5.13;;
71941;SDS011;59997;53.300;-6.260;2022-12-07T08:59:35;17.10;;;7.00;;
71941;SDS011;59997;53.300;-6.260;2022-12-07T09:02:03;19.63;;;5.43;;
71941;SDS011;59997;53.300;-6.260;2022-12-07T09:04:30;11.88;;;4.18;;
71941;SDS011;59997;53.300;-6.260;2022-12-07T09:07:00;15.30;;;4.35;;
71941;SDS011;59997;53.300;-6.260;2022-12-07T09:09:27;15.75;;;4.85;;
71941;SDS011;59997;53.300;-6.260;2022-12-07T09:11:53;14.77;;;5.17;;
71941;SDS011;59997;53.300;-6.260;2022-12-07T09:14:21;15.07;;;4.65;;
71941;SDS011;59997;53.300;-6.260;2022-12-07T09:16:47;20.38;;;5.85;;
71941;SDS011;59997;53.300;-6.260;2022-12-07T09:19:14;23.33;;;6.00;;
71941;SDS011;59997;53.300;-6.260;2022-12-07T09:21:41;17.15;;;4.70;;
71941;SDS011;59997;53.300;-6.260;2022-12-07T09:24:07;18.85;;;4.78;;
71941;SDS011;59997;53.300;-6.260;2022-12-07T09:26:34;15.03;;;4.13;;
71941;SDS011;59997;53.300;-6.260;2022-12-07T09:29:01;19.35;;;5.95;;
71941;SDS011;59997;53.300;-6.260;2022-12-07T09:31:28;15.63;;;4.95;;
71941;SDS011;59997;53.300;-6.260;2022-12-07T09:33:55;19.42;;;5.43;;
71941;SDS011;59997;53.300;-6.260;2022-12-07T09:36:22;25.95;;;6.53;;
71941;SDS011;59997;53.300;-6.260;2022-12-07T09:38:48;14.57;;;4.60;;
71941;SDS011;59997;53.300;-6.260;2022-12-07T09:41:13;19.33;;;5.95;;
71941;SDS011;59997;53.300;-6.260;2022-12-07T09:43:41;22.42;;;5.38;;
71941;SDS011;59997;53.300;-6.260;2022-12-07T09:46:08;21.08;;;5.47;;
71941;SDS011;59997;53.300;-6.260;2022-12-07T09:48:39;17.67;;;5.40;;
71941;SDS011;59997;53.300;-6.260;2022-12-07T09:51:20;19.35;;;6.18;;
71941;SDS011;59997;53.300;-6.260;2022-12-07T09:53:49;17.47;;;5.33;;
71941;SDS011;59997;53.300;-6.260;2022-12-07T09:56:17;16.55;;;4.45;;
71941;SDS011;59997;53.300;-6.260;2022-12-07T09:58:44;15.68;;;6.00;;
71941;SDS011;59997;53.300;-6.260;2022-12-07T10:01:15;14.70;;;5.50;;
71941;SDS011;59997;53.300;-6.260;2022-12-07T10:03:53;11.57;;;4.05;;
71941;SDS011;59997;53.300;-6.260;2022-12-07T10:06:50;12.20;;;4.05;;
71941;SDS011;59997;53.300;-6.260;2022-12-07T10:09:18;20.23;;;4.40;;
71941;SDS011;59997;53.300;-6.260;2022-12-07T10:14:39;17.92;;;5.05;;
71941;SDS011;59997;53.300;-6.260;2022-12-07T10:17:35;8.98;;;3.75;;
71941;SDS011;59997;53.300;-6.260;2022-12-07T10:20:14;10.20;;;2.95;;
71941;SDS011;59997;53.300;-6.260;2022-12-07T10:23:22;14.20;;;3.92;;
71941;SDS011;59997;53.300;-6.260;2022-12-07T10:25:41;10.38;;;3.63;;
71941;SDS011;59997;53.300;-6.260;2022-12-07T10:33:39;12.40;;;3.38;;
71941;SDS011;59997;53.300;-6.260;2022-12-07T10:39:17;9.60;;;2.70;;
71941;SDS011;59997;53.300;-6.260;2022-12-07T10:42:01;12.57;;;3.72;;
71941;SDS011;59997;53.300;-6.260;2022-12-07T10:44:29;12.75;;;3.65;;
71941;SDS011;59997;53.300;-6.260;2022-12-07T10:50:14;18.98;;;3.72;;
71941;SDS011;59997;53.300;-6.260;2022-12-07T11:02:19;8.50;;;2.55;;
71941;SDS011;59997;53.300;-6.260;2022-12-07T11:08:00;6.90;;;2.00;;
71941;SDS011;59997;53.300;-6.260;2022-12-07T11:11:04;10.48;;;2.67;;
71941;SDS011;59997;53.300;-6.260;2022-12-07T11:14:00;7.07;;;2.22;;
71941;SDS011;59997;53.300;-6.260;2022-12-07T11:22:45;6.70;;;2.00;;
71941;SDS011;59997;53.300;-6.260;2022-12-07T11:25:39;9.18;;;1.90;;
71941;SDS011;59997;53.300;-6.260;2022-12-07T11:28:13;5.85;;;1.60;;
71941;SDS011;59997;53.300;-6.260;2022-12-07T11:31:12;6.10;;;1.80;;
71941;SDS011;59997;53.300;-6.260;2022-12-07T11:34:00;5.73;;;1.57;;
71941;SDS011;59997;53.300;-6.260;2022-12-07T11:36:54;7.90;;;1.83;;
71941;SDS011;59997;53.300;-6.260;2022-12-07T11:39:26;5.43;;;1.73;;
71941;SDS011;59997;53.300;-6.260;2022-12-07T11:42:01;6.95;;;1.70;;
71941;SDS011;59997;53.300;-6.260;2022-12-07T11:45:19;6.70;;;2.05;;
71941;SDS011;59997;53.300;-6.260;2022-12-07T11:47:58;7.33;;;1.83;;
71941;SDS011;59997;53.300;-6.260;2022-12-07T11:56:13;7.18;;;2.08;;
71941;SDS011;59997;53.300;-6.260;2022-12-07T11:58:49;8.10;;;2.05;;
71941;SDS011;59997;53.300;-6.260;2022-12-07T12:01:35;7.43;;;2.10;;
71941;SDS011;59997;53.300;-6.260;2022-12-07T12:06:59;6.80;;;1.92;;
71941;SDS011;59997;53.300;-6.260;2022-12-07T12:09:32;7.80;;;1.60;;
71941;SDS011;59997;53.300;-6.260;2022-12-07T12:12:06;7.68;;;1.65;;
71941;SDS011;59997;53.300;-6.260;2022-12-07T12:20:50;8.70;;;1.92;;
71941;SDS011;59997;53.300;-6.260;2022-12-07T12:26:13;11.80;;;3.40;;
71941;SDS011;59997;53.300;-6.260;2022-12-07T12:34:00;7.25;;;2.17;;
71941;SDS011;59997;53.300;-6.260;2022-12-07T12:39:12;9.02;;;1.98;;
71941;SDS011;59997;53.300;-6.260;2022-12-07T12:47:01;9.02;;;1.92;;
71941;SDS011;59997;53.300;-6.260;2022-12-07T12:49:34;7.15;;;1.45;;
71941;SDS011;59997;53.300;-6.260;2022-12-07T12:57:44;6.15;;;1.40;;
71941;SDS011;59997;53.300;-6.260;2022-12-07T13:02:56;8.75;;;1.80;;
71941;SDS011;59997;53.300;-6.260;2022-12-07T13:05:27;10.77;;;1.95;;
71941;SDS011;59997;53.300;-6.260;2022-12-07T13:10:49;8.23;;;2.03;;
71941;SDS011;59997;53.300;-6.260;2022-12-07T13:15:50;6.32;;;1.67;;
71941;SDS011;59997;53.300;-6.260;2022-12-07T13:18:38;7.95;;;2.08;;
71941;SDS011;59997;53.300;-6.260;2022-12-07T13:26:17;10.27;;;2.03;;
71941;SDS011;59997;53.300;-6.260;2022-12-07T13:31:50;7.05;;;1.88;;
71941;SDS011;59997;53.300;-6.260;2022-12-07T13:34:35;8.38;;;1.40;;
71941;SDS011;59997;53.300;-6.260;2022-12-07T13:39:55;9.02;;;1.90;;
71941;SDS011;59997;53.300;-6.260;2022-12-07T13:42:32;8.63;;;2.33;;
71941;SDS011;59997;53.300;-6.260;2022-12-07T13:44:59;8.77;;;1.88;;
71941;SDS011;59997;53.300;-6.260;2022-12-07T13:47:44;9.30;;;1.88;;
71941;SDS011;59997;53.300;-6.260;2022-12-07T13:50:22;7.20;;;2.25;;
71941;SDS011;59997;53.300;-6.260;2022-12-07T13:53:07;24.63;;;3.45;;
71941;SDS011;59997;53.300;-6.260;2022-12-07T13:55:38;16.00;;;3.15;;
71941;SDS011;59997;53.300;-6.260;2022-12-07T13:58:10;8.75;;;2.30;;
71941;SDS011;59997;53.300;-6.260;2022-12-07T14:00:37;13.95;;;4.13;;
71941;SDS011;59997;53.300;-6.260;2022-12-07T14:05:39;11.85;;;3.58;;
71941;SDS011;59997;53.300;-6.260;2022-12-07T14:10:41;12.45;;;3.38;;
71941;SDS011;59997;53.300;-6.260;2022-12-07T14:13:29;12.65;;;3.58;;
71941;SDS011;59997;53.300;-6.260;2022-12-07T14:16:33;9.18;;;2.50;;
71941;SDS011;59997;53.300;-6.260;2022-12-07T14:19:02;10.27;;;2.30;;
71941;SDS011;59997;53.300;-6.260;2022-12-07T14:21:30;10.52;;;2.72;;
71941;SDS011;59997;53.300;-6.260;2022-12-07T14:24:11;10.15;;;2.65;;
71941;SDS011;59997;53.300;-6.260;2022-12-07T14:26:42;11.45;;;2.15;;
71941;SDS011;59997;53.300;-6.260;2022-12-07T14:31:57;5.28;;;0.88;;
71941;SDS011;59997;53.300;-6.260;2022-12-07T14:34:29;7.15;;;1.42;;
71941;SDS011;59997;53.300;-6.260;2022-12-07T14:36:55;9.77;;;1.40;;
71941;SDS011;59997;53.300;-6.260;2022-12-07T14:39:21;7.88;;;1.83;;
71941;SDS011;59997;53.300;-6.260;2022-12-07T14:41:48;11.38;;;2.42;;
71941;SDS011;59997;53.300;-6.260;2022-12-07T14:44:27;5.80;;;1.08;;
71941;SDS011;59997;53.300;-6.260;2022-12-07T14:46:54;7.03;;;1.50;;
71941;SDS011;59997;53.300;-6.260;2022-12-07T14:49:20;8.15;;;1.90;;
71941;SDS011;59997;53.300;-6.260;2022-12-07T14:51:46;6.53;;;1.73;;
71941;SDS011;59997;53.300;-6.260;2022-12-07T14:54:17;7.38;;;1.50;;
71941;SDS011;59997;53.300;-6.260;2022-12-07T14:56:44;10.27;;;1.75;;
71941;SDS011;59997;53.300;-6.260;2022-12-07T14:59:11;6.05;;;1.05;;
71941;SDS011;59997;53.300;-6.260;2022-12-07T15:01:37;7.55;;;1.35;;
71941;SDS011;59997;53.300;-6.260;2022-12-07T15:04:04;9.25;;;1.60;;
71941;SDS011;59997;53.300;-6.260;2022-12-07T15:06:29;9.93;;;2.25;;
71941;SDS011;59997;53.300;-6.260;2022-12-07T15:08:57;9.18;;;2.15;;
71941;SDS011;59997;53.300;-6.260;2022-12-07T15:11:24;7.13;;;2.10;;
71941;SDS011;59997;53.300;-6.260;2022-12-07T15:13:51;10.43;;;2.22;;
71941;SDS011;59997;53.300;-6.260;2022-12-07T15:16:36;9.80;;;2.40;;
71941;SDS011;59997;53.300;-6.260;2022-12-07T15:19:09;9.77;;;2.50;;
71941;SDS011;59997;53.300;-6.260;2022-12-07T15:21:38;6.45;;;1.42;;
71941;SDS011;59997;53.300;-6.260;2022-12-07T15:24:04;11.73;;;2.03;;
71941;SDS011;59997;53.300;-6.260;2022-12-07T15:26:30;11.73;;;3.00;;
71941;SDS011;59997;53.300;-6.260;2022-12-07T15:28:58;8.25;;;2.00;;
71941;SDS011;59997;53.300;-6.260;2022-12-07T15:31:25;9.63;;;1.67;;
71941;SDS011;59997;53.300;-6.260;2022-12-07T15:33:51;8.32;;;1.88;;
71941;SDS011;59997;53.300;-6.260;2022-12-07T15:36:22;11.93;;;2.13;;
71941;SDS011;59997;53.300;-6.260;2022-12-07T15:38:49;12.13;;;3.08;;
71941;SDS011;59997;53.300;-6.260;2022-12-07T15:41:16;12.18;;;4.00;;
71941;SDS011;59997;53.300;-6.260;2022-12-07T15:43:42;10.70;;;3.40;;
71941;SDS011;59997;53.300;-6.260;2022-12-07T15:46:34;12.32;;;2.67;;
71941;SDS011;59997;53.300;-6.260;2022-12-07T15:49:04;9.68;;;2.50;;
71941;SDS011;59997;53.300;-6.260;2022-12-07T15:51:35;11.32;;;3.13;;
71941;SDS011;59997;53.300;-6.260;2022-12-07T15:54:00;10.38;;;3.65;;
71941;SDS011;59997;53.300;-6.260;2022-12-07T15:56:26;12.48;;;3.53;;
71941;SDS011;59997;53.300;-6.260;2022-12-07T15:58:52;13.13;;;3.73;;
71941;SDS011;59997;53.300;-6.260;2022-12-07T16:01:18;10.57;;;2.97;;
71941;SDS011;59997;53.300;-6.260;2022-12-07T16:03:47;12.13;;;3.60;;
71941;SDS011;59997;53.300;-6.260;2022-12-07T16:06:15;13.20;;;3.50;;
71941;SDS011;59997;53.300;-6.260;2022-12-07T16:08:45;12.45;;;3.13;;
71941;SDS011;59997;53.300;-6.260;2022-12-07T16:11:12;10.13;;;1.88;;
71941;SDS011;59997;53.300;-6.260;2022-12-07T16:13:40;14.18;;;3.03;;
71941;SDS011;59997;53.300;-6.260;2022-12-07T16:16:07;9.80;;;3.42;;
71941;SDS011;59997;53.300;-6.260;2022-12-07T16:18:39;15.38;;;3.50;;
71941;SDS011;59997;53.300;-6.260;2022-12-07T16:21:04;13.57;;;3.25;;
71941;SDS011;59997;53.300;-6.260;2022-12-07T16:23:31;10.17;;;2.80;;
71941;SDS011;59997;53.300;-6.260;2022-12-07T16:26:03;17.95;;;4.28;;
71941;SDS011;59997;53.300;-6.260;2022-12-07T16:28:36;13.02;;;4.25;;
71941;SDS011;59997;53.300;-6.260;2022-12-07T16:31:02;12.53;;;3.60;;
71941;SDS011;59997;53.300;-6.260;2022-12-07T16:33:36;15.80;;;4.00;;
71941;SDS011;59997;53.300;-6.260;2022-12-07T16:36:05;13.02;;;3.30;;
71941;SDS011;59997;53.300;-6.260;2022-12-07T16:38:32;12.10;;;3.05;;
71941;SDS011;59997;53.300;-6.260;2022-12-07T16:41:00;10.20;;;3.00;;
71941;SDS011;59997;53.300;-6.260;2022-12-07T16:43:25;9.32;;;3.15;;
71941;SDS011;59997;53.300;-6.260;2022-12-07T16:45:51;17.60;;;4.18;;
71941;SDS011;59997;53.300;-6.260;2022-12-07T16:48:17;14.33;;;3.90;;
71941;SDS011;59997;53.300;-6.260;2022-12-07T16:50:43;13.23;;;4.00;;
71941;SDS011;59997;53.300;-6.260;2022-12-07T16:53:10;13.75;;;3.63;;
71941;SDS011;59997;53.300;-6.260;2022-12-07T16:55:39;11.75;;;4.18;;
71941;SDS011;59997;53.300;-6.260;2022-12-07T16:58:06;12.75;;;4.13;;